createdAt,value
2018-12-14T00:06:32.635Z,23.43
2018-12-14T00:10:37.672Z,28.13
2018-12-14T00:14:42.642Z,24.23
2018-12-14T00:18:47.602Z,21.13
2018-12-14T00:22:52.533Z,24.70
2018-12-14T00:31:13.120Z,20.93
2018-12-14T00:39:30.188Z,20.17
2018-12-14T00:43:35.802Z,24.73
2018-12-14T00:47:40.807Z,18.67
2018-12-14T00:51:45.818Z,20.53
2018-12-14T00:55:50.759Z,17.87
2018-12-14T00:59:56.134Z,19.13
2018-12-14T01:04:01.257Z,20.57
2018-12-14T01:08:06.229Z,19.77
2018-12-14T01:12:11.191Z,22.23
2018-12-14T01:16:16.687Z,19.87
2018-12-14T01:20:21.675Z,19.43
2018-12-14T01:24:26.555Z,16.63
2018-12-14T01:28:31.571Z,17.63
2018-12-14T01:32:36.571Z,21.07
2018-12-14T01:36:41.500Z,18.17
2018-12-14T01:40:46.511Z,19.93
2018-12-14T01:44:51.536Z,16.73
2018-12-14T01:48:56.858Z,16.63
2018-12-14T01:53:01.783Z,22.37
2018-12-14T01:57:06.657Z,19.73
2018-12-14T02:01:11.634Z,17.23
2018-12-14T02:05:16.606Z,21.70
2018-12-14T02:09:21.677Z,15.97
2018-12-14T02:13:26.616Z,18.50
2018-12-14T02:17:31.653Z,19.10
2018-12-14T02:21:36.626Z,17.77
2018-12-14T02:25:41.662Z,18.10
2018-12-14T02:29:46.547Z,19.10
2018-12-14T02:33:51.550Z,15.87
2018-12-14T02:37:56.682Z,19.23
2018-12-14T02:42:01.601Z,19.63
2018-12-14T02:46:06.587Z,19.13
2018-12-14T02:50:11.474Z,17.77
2018-12-14T02:54:16.506Z,17.83
2018-12-14T02:58:21.499Z,21.03
2018-12-14T03:02:26.395Z,20.80
2018-12-14T03:06:31.288Z,19.87
2018-12-14T03:10:36.234Z,18.20
2018-12-14T03:14:41.142Z,16.37
2018-12-14T03:18:46.074Z,21.50
2018-12-14T03:22:51.103Z,19.73
2018-12-14T03:26:56.036Z,20.47
2018-12-14T03:35:11.009Z,18.10
2018-12-14T03:39:16.008Z,19.83
2018-12-14T03:43:20.869Z,22.63
2018-12-14T03:47:25.851Z,22.93
2018-12-14T03:51:30.754Z,24.07
2018-12-14T03:55:42.687Z,19.60
2018-12-14T04:00:07.160Z,21.03
2018-12-14T04:04:12.135Z,21.27
2018-12-14T04:08:17.083Z,17.43
2018-12-14T04:12:22.039Z,22.40
2018-12-14T04:16:26.986Z,21.13
2018-12-14T04:20:32.049Z,25.87
2018-12-14T04:24:37.123Z,22.30
2018-12-14T04:28:42.197Z,27.30
2018-12-14T04:32:47.252Z,30.40
2018-12-14T04:36:52.159Z,27.23
2018-12-14T04:40:57.159Z,26.80
2018-12-14T04:45:02.127Z,26.83
2018-12-14T04:49:07.033Z,24.57
2018-12-14T04:53:11.974Z,23.90
2018-12-14T04:57:17.038Z,28.13
2018-12-14T05:01:21.974Z,27.80
2018-12-14T05:05:27.051Z,30.90
2018-12-14T05:09:31.984Z,27.50
2018-12-14T05:13:37.012Z,34.13
2018-12-14T05:17:42.005Z,28.70
2018-12-14T05:21:47.120Z,26.60
2018-12-14T05:25:52.075Z,26.90
2018-12-14T05:29:57.279Z,28.60
2018-12-14T05:34:02.325Z,29.57
2018-12-14T05:38:07.185Z,26.70
2018-12-14T05:42:12.143Z,28.07
2018-12-14T05:46:17.026Z,22.47
2018-12-14T05:50:22.287Z,25.70
2018-12-14T05:54:27.230Z,24.23
2018-12-14T05:58:32.165Z,24.63
2018-12-14T06:02:37.089Z,26.77
2018-12-14T06:06:42.219Z,32.27
2018-12-14T06:10:47.199Z,22.93
2018-12-14T06:14:52.162Z,23.77
2018-12-14T06:18:57.115Z,27.10
2018-12-14T06:23:02.024Z,24.30
2018-12-14T06:27:06.996Z,20.83
2018-12-14T06:31:12.066Z,27.90
2018-12-14T06:35:17.059Z,23.40
2018-12-14T06:39:22.250Z,20.37
2018-12-14T06:43:27.178Z,26.23
2018-12-14T06:47:32.240Z,18.93
2018-12-14T06:51:37.608Z,22.63
2018-12-14T06:55:44.096Z,24.17
2018-12-14T06:59:49.054Z,24.23
2018-12-14T07:03:54.048Z,23.27
2018-12-14T07:07:58.999Z,26.80
2018-12-14T07:12:03.953Z,22.00
2018-12-14T07:16:08.915Z,22.90
2018-12-14T07:20:13.926Z,23.90
2018-12-14T07:24:18.903Z,23.93
2018-12-14T07:28:23.906Z,23.63
2018-12-14T07:32:28.918Z,23.10
2018-12-14T07:36:33.863Z,23.63
2018-12-14T07:40:38.866Z,20.60
2018-12-14T07:44:43.971Z,24.37
2018-12-14T07:48:50.780Z,22.30
2018-12-14T07:52:59.210Z,23.50
2018-12-14T07:57:04.224Z,25.83
2018-12-14T08:01:09.193Z,24.40
2018-12-14T08:05:14.109Z,26.97
2018-12-14T08:13:34.769Z,23.40
2018-12-14T08:17:37.955Z,26.73
2018-12-14T08:21:42.838Z,24.77
2018-12-14T08:25:47.820Z,28.93
2018-12-14T08:29:52.895Z,25.00
2018-12-14T08:33:58.288Z,24.63
2018-12-14T08:38:03.433Z,25.93
2018-12-14T08:42:08.419Z,25.07
2018-12-14T08:46:13.456Z,25.90
2018-12-14T08:50:18.830Z,26.73
2018-12-14T08:58:49.826Z,26.27
2018-12-14T09:02:54.877Z,28.73
2018-12-14T09:06:59.843Z,27.20
2018-12-14T09:11:04.859Z,21.30
2018-12-14T09:15:09.787Z,25.20
2018-12-14T09:19:14.755Z,22.50
2018-12-14T09:23:19.913Z,29.00
2018-12-14T09:27:24.967Z,27.30
2018-12-14T09:31:30.523Z,29.27
2018-12-14T09:35:35.623Z,29.23
2018-12-14T09:39:40.592Z,23.47
2018-12-14T09:43:45.619Z,26.97
2018-12-14T09:47:50.586Z,26.97
2018-12-14T09:51:55.427Z,27.10
2018-12-14T09:56:00.675Z,28.27
2018-12-14T10:00:05.701Z,26.30
2018-12-14T10:04:10.767Z,29.47
2018-12-14T10:08:15.916Z,27.27
2018-12-14T10:12:20.949Z,30.80
2018-12-14T10:16:25.928Z,28.30
2018-12-14T10:20:30.963Z,28.43
2018-12-14T10:24:35.855Z,26.70
2018-12-14T10:28:40.839Z,29.03
2018-12-14T10:32:45.904Z,24.77
2018-12-14T10:36:50.984Z,29.07
2018-12-14T10:40:56.076Z,26.97
2018-12-14T10:45:01.103Z,26.83
2018-12-14T10:49:06.373Z,25.90
2018-12-14T10:53:30.076Z,21.53
2018-12-14T10:57:35.217Z,24.90
2018-12-14T11:01:58.948Z,23.77
2018-12-14T11:06:04.003Z,27.67
2018-12-14T11:10:09.684Z,26.43
2018-12-14T11:14:14.710Z,26.90
2018-12-14T11:18:19.578Z,27.37
2018-12-14T11:22:24.529Z,27.53
2018-12-14T11:26:29.518Z,27.83
2018-12-14T11:30:34.511Z,26.97
2018-12-14T11:34:39.529Z,30.57
2018-12-14T11:38:44.491Z,31.43
2018-12-14T11:42:49.702Z,28.47
2018-12-14T11:46:54.638Z,24.50
2018-12-14T11:50:59.721Z,26.83
2018-12-14T11:55:04.631Z,28.23
2018-12-14T11:59:09.684Z,21.90
2018-12-14T12:03:14.744Z,30.07
2018-12-14T12:07:19.773Z,35.97
2018-12-14T12:11:24.777Z,27.80
2018-12-14T12:15:29.759Z,28.03
2018-12-14T12:19:34.723Z,29.63
2018-12-14T12:24:19.036Z,22.40
2018-12-14T12:28:24.039Z,20.30
2018-12-14T12:32:29.090Z,22.37
2018-12-14T12:36:34.070Z,19.60
2018-12-14T12:40:39.109Z,21.57
2018-12-14T12:44:44.112Z,20.77
2018-12-14T12:48:49.316Z,19.57
2018-12-14T12:52:54.277Z,20.30
2018-12-14T12:56:59.334Z,23.37
2018-12-14T13:01:04.304Z,26.77
2018-12-14T13:05:09.296Z,21.33
2018-12-14T13:09:14.226Z,19.47
2018-12-14T13:13:19.190Z,20.13
2018-12-14T13:17:24.115Z,19.07
2018-12-14T13:21:29.094Z,20.77
2018-12-14T13:25:34.068Z,16.73
2018-12-14T13:29:39.158Z,15.40
2018-12-14T13:33:44.089Z,19.90
2018-12-14T13:37:49.055Z,24.03
2018-12-14T13:41:53.974Z,23.07
2018-12-14T13:45:59.377Z,25.50
2018-12-14T13:50:04.417Z,22.83
2018-12-14T13:54:09.341Z,20.60
2018-12-14T13:58:14.356Z,22.30
2018-12-14T14:02:19.270Z,23.33
2018-12-14T14:06:24.346Z,21.70
2018-12-14T14:10:48.229Z,20.50
2018-12-14T14:14:53.210Z,20.63
2018-12-14T14:18:57.980Z,21.73
2018-12-14T14:23:02.948Z,22.50
2018-12-14T14:27:08.031Z,24.60
2018-12-14T14:31:12.930Z,23.67
2018-12-14T14:35:17.968Z,21.87
2018-12-14T14:39:22.864Z,20.53
2018-12-14T14:43:27.828Z,24.70
2018-12-14T14:47:32.807Z,22.73
2018-12-14T14:51:38.109Z,25.73
2018-12-14T14:55:43.111Z,28.43
2018-12-14T14:59:48.178Z,26.17
2018-12-14T15:03:53.150Z,23.43
2018-12-14T15:07:58.618Z,23.50
2018-12-14T15:12:03.663Z,30.83
2018-12-14T15:16:08.676Z,26.63
2018-12-14T15:20:13.846Z,26.30
2018-12-14T15:24:19.251Z,24.20
2018-12-14T15:28:24.244Z,27.70
2018-12-14T15:32:29.224Z,29.33
2018-12-14T15:36:34.131Z,28.97
2018-12-14T15:40:39.093Z,26.80
2018-12-14T15:44:44.166Z,29.43
2018-12-14T15:48:49.127Z,28.33
2018-12-14T15:52:54.118Z,27.77
2018-12-14T15:56:59.008Z,24.83
2018-12-14T16:01:03.972Z,33.63
2018-12-14T16:05:08.905Z,31.47
2018-12-14T16:09:14.052Z,30.23
2018-12-14T16:13:19.038Z,33.77
2018-12-14T16:21:42.551Z,31.87
2018-12-14T16:25:47.608Z,32.07
2018-12-14T16:29:52.556Z,33.87
2018-12-14T16:33:57.570Z,34.07
2018-12-14T16:38:02.592Z,33.20
2018-12-14T16:42:07.553Z,27.07
2018-12-14T16:46:12.428Z,33.50
2018-12-14T16:50:17.429Z,31.20
2018-12-14T16:54:22.365Z,31.90
2018-12-14T16:58:27.471Z,30.93
2018-12-14T17:02:32.471Z,28.87
2018-12-14T17:06:56.158Z,32.07
2018-12-14T17:11:01.253Z,35.73
2018-12-14T17:15:08.642Z,30.80
2018-12-14T17:19:13.494Z,34.47
2018-12-14T17:23:18.551Z,34.70
2018-12-14T17:27:23.566Z,37.33
2018-12-14T17:31:28.508Z,36.10
2018-12-14T17:35:33.454Z,35.50
2018-12-14T17:39:38.531Z,30.93
2018-12-14T17:43:43.423Z,33.47
2018-12-14T17:47:48.471Z,36.93
2018-12-14T17:51:53.446Z,36.50
2018-12-14T17:55:58.478Z,35.27
2018-12-14T18:00:03.521Z,38.20
2018-12-14T18:04:08.459Z,34.60
2018-12-14T18:08:13.856Z,35.63
2018-12-14T18:12:19.241Z,34.70
2018-12-14T18:16:24.581Z,30.43
2018-12-14T18:20:29.572Z,34.60
2018-12-14T18:24:34.506Z,35.07
2018-12-14T18:28:39.659Z,35.83
2018-12-14T18:32:44.955Z,30.83
2018-12-14T18:36:49.938Z,32.40
2018-12-14T18:40:55.015Z,34.57
2018-12-14T18:44:59.936Z,33.60
2018-12-14T18:49:05.066Z,39.50
2018-12-14T18:53:10.112Z,31.17
2018-12-14T18:57:15.277Z,32.13
2018-12-14T19:01:20.371Z,31.63
2018-12-14T19:05:25.268Z,37.00
2018-12-14T19:09:30.266Z,42.67
2018-12-14T19:13:35.113Z,32.37
2018-12-14T19:17:39.971Z,35.17
2018-12-14T19:21:44.849Z,35.13
2018-12-14T19:25:49.775Z,35.57
2018-12-14T19:34:06.960Z,38.30
2018-12-14T19:38:11.773Z,41.20
2018-12-14T19:42:16.611Z,34.83
2018-12-14T19:46:21.432Z,35.50
2018-12-14T19:50:26.257Z,40.13
2018-12-14T19:54:31.166Z,39.57
2018-12-14T19:58:36.079Z,41.00
2018-12-14T20:02:40.949Z,40.97
2018-12-14T20:06:45.847Z,36.83
2018-12-14T20:10:50.650Z,37.17
2018-12-14T20:14:55.521Z,38.10
2018-12-14T20:19:00.283Z,41.57
2018-12-14T20:23:05.124Z,39.80
2018-12-14T20:27:09.916Z,44.07
2018-12-14T20:31:14.750Z,42.20
2018-12-14T20:35:19.863Z,39.07
2018-12-14T20:39:24.768Z,45.30
2018-12-14T20:43:30.004Z,40.80
2018-12-14T20:47:34.833Z,40.23
2018-12-14T20:51:40.373Z,38.13
2018-12-14T20:55:45.178Z,44.50
2018-12-14T20:59:50.030Z,40.23
2018-12-14T21:03:55.071Z,43.30
2018-12-14T21:07:59.877Z,43.60
2018-12-14T21:12:04.728Z,38.57
2018-12-14T21:16:09.539Z,44.17
2018-12-14T21:20:14.365Z,43.33
2018-12-14T21:24:19.277Z,43.67
2018-12-14T21:28:24.542Z,42.90
2018-12-14T21:32:29.366Z,42.67
2018-12-14T21:36:34.196Z,39.90
2018-12-14T21:40:38.955Z,42.90
2018-12-14T21:44:43.793Z,45.87
2018-12-14T21:48:48.655Z,43.63
2018-12-14T21:52:53.475Z,39.80
2018-12-14T21:56:58.325Z,43.83
2018-12-14T22:01:03.094Z,43.87
2018-12-14T22:05:08.532Z,49.37
2018-12-14T22:09:13.457Z,51.83
2018-12-14T22:13:18.286Z,40.87
2018-12-14T22:17:23.111Z,45.37
2018-12-14T22:21:27.924Z,50.27
2018-12-14T22:25:32.759Z,43.27
2018-12-14T22:29:37.545Z,40.90
2018-12-14T22:33:42.373Z,46.07
2018-12-14T22:37:47.367Z,41.77
2018-12-14T22:41:52.376Z,45.37
2018-12-14T22:45:57.368Z,44.07
2018-12-14T22:50:02.437Z,41.70
2018-12-14T22:54:07.492Z,44.73
2018-12-14T22:58:12.487Z,44.83
2018-12-14T23:02:17.481Z,41.30
2018-12-14T23:06:22.909Z,39.57
2018-12-14T23:10:27.987Z,39.00
2018-12-14T23:14:32.997Z,49.90
2018-12-14T23:18:38.411Z,40.73
2018-12-14T23:22:43.420Z,43.70
2018-12-14T23:26:48.499Z,42.77
2018-12-14T23:30:53.454Z,43.20
2018-12-14T23:34:58.487Z,41.67
2018-12-14T23:39:03.758Z,41.63
2018-12-14T23:43:08.666Z,42.83
2018-12-14T23:47:13.622Z,42.87
2018-12-14T23:51:18.593Z,43.67
2018-12-14T23:55:24.091Z,41.07
2018-12-14T23:59:29.134Z,40.07
